Terminal Aerodrome Forecast
Issued by NWS Boston, MA

Home | Current Version | Previous Version | Text Only | Print | Product List | Glossary On
Versions: 1 2 3 4 5 6 7 8 9 10 11 12 13 14 15 16 17 18 19 20 21 22 23 24 25 26 27 28 29 30 31 32 33 34 35 36 37 38
000
FTUS41 KBOX 261316 AAA
TAFORH
TAF AMD
KORH 261316Z 2613/2712 10008KT 4SM -RA BR OVC004
     FM262100 09010G21KT 3SM -SHRA OVC003
     FM270100 13007KT 2SM +SHRA OVC008
     FM271000 27009KT 6SM BR VCSH BKN040=

USA.gov is the U.S. government's official web portal to all federal, state and local government web resources and services.